Time;durP1;ratioP1;P1;durP2;ratioP2;P2;SDS_P1;SDS_P2;PMS_P1;PMS_P2;Temp;Humidity;BMP_temperature;BMP_pressure;BME280_temperature;BME280_humidity;BME280_pressure;Samples;Min_cycle;Max_cycle;Signal;HPM_P1;HPM_P2
2022/08/14 00:01:46;;;;;;;5.10;4.80;;;33.50;34.10;;;;;;5075682;27;20545;-80
2022/08/14 00:04:22;;;;;;;5.37;5.07;;;33.40;34.00;;;;;;5075430;27;20417;-80
2022/08/14 00:07:09;;;;;;;5.70;5.37;;;33.40;34.10;;;;;;5075508;27;20452;-80
2022/08/14 00:09:37;;;;;;;5.30;5.00;;;33.40;34.10;;;;;;5067759;27;20447;-81
2022/08/14 00:12:23;;;;;;;5.47;5.17;;;33.30;34.10;;;;;;5052961;28;20462;-81
2022/08/14 00:15:01;;;;;;;5.20;4.90;;;33.30;34.20;;;;;;5052318;28;20463;-80
2022/08/14 00:17:31;;;;;;;4.73;4.53;;;33.30;34.20;;;;;;5052708;28;20473;-80
2022/08/14 00:20:13;;;;;;;5.50;5.20;;;33.30;34.20;;;;;;5052825;28;20473;-80
2022/08/14 00:22:51;;;;;;;5.33;4.83;;;33.20;34.20;;;;;;5052898;28;20446;-80
2022/08/14 00:25:25;;;;;;;4.40;4.20;;;33.20;34.30;;;;;;5052956;28;20474;-80
2022/08/14 00:28:09;;;;;;;5.23;4.93;;;33.20;34.30;;;;;;5053123;28;20475;-79
2022/08/14 00:30:42;;;;;;;5.50;5.20;;;33.10;34.20;;;;;;5052430;28;20442;-80
2022/08/14 00:33:12;;;;;;;5.20;4.80;;;33.10;34.20;;;;;;5052194;28;20451;-80
2022/08/14 00:35:42;;;;;;;5.20;4.80;;;33.10;34.30;;;;;;5064782;28;20439;-81
2022/08/14 00:38:31;;;;;;;5.10;4.80;;;33.10;34.30;;;;;;5064173;28;20498;-82
2022/08/14 00:41:02;;;;;;;5.47;5.17;;;33.00;34.30;;;;;;5056623;28;20449;-81
2022/08/14 00:43:30;;;;;;;5.80;5.37;;;33.00;34.30;;;;;;5056403;28;20443;-82
2022/08/14 00:46:02;;;;;;;5.07;4.80;;;33.00;34.40;;;;;;5054984;28;20497;-81
2022/08/14 00:48:36;;;;;;;5.40;5.10;;;32.90;34.40;;;;;;5055451;28;20963;-81
2022/08/14 00:51:06;;;;;;;5.10;4.80;;;32.90;34.40;;;;;;5055613;28;20449;-82
2022/08/14 00:53:35;;;;;;;5.30;5.00;;;32.90;34.40;;;;;;5055737;28;20462;-80
2022/08/14 00:56:06;;;;;;;4.30;4.10;;;32.90;34.40;;;;;;5055798;28;20435;-81
2022/08/14 00:58:35;;;;;;;5.23;4.93;;;32.90;34.40;;;;;;5056037;28;20451;-82
2022/08/14 01:01:17;;;;;;;5.00;4.80;;;32.90;34.40;;;;;;5055665;28;20474;-81
2022/08/14 01:03:47;;;;;;;5.30;5.00;;;32.90;34.50;;;;;;5054841;28;20467;-81
2022/08/14 01:06:20;;;;;;;4.83;4.63;;;32.90;34.60;;;;;;5055037;28;20445;-81
2022/08/14 01:08:49;;;;;;;5.13;4.83;;;32.80;34.40;;;;;;5055760;28;20442;-81
2022/08/14 01:11:26;;;;;;;5.00;4.70;;;32.80;34.50;;;;;;5054252;28;20453;-79
2022/08/14 01:14:03;;;;;;;5.00;4.70;;;32.80;34.50;;;;;;5055864;28;20463;-79
2022/08/14 01:16:51;;;;;;;4.70;4.50;;;32.70;34.50;;;;;;5055150;28;20466;-80
2022/08/14 01:22:22;;;;;;;5.23;4.93;;;32.70;34.60;;;;;;5020120;28;21018;-80
2022/08/14 01:24:56;;;;;;;5.07;4.77;;;32.70;34.60;;;;;;5054923;28;20473;-80
2022/08/14 01:27:27;;;;;;;4.40;4.10;;;32.70;34.60;;;;;;5054879;28;20457;-83
2022/08/14 01:29:57;;;;;;;4.93;4.57;;;32.70;34.60;;;;;;5054774;28;20478;-81
2022/08/14 01:32:32;;;;;;;4.37;4.17;;;32.60;34.60;;;;;;5055113;28;20416;-81
2022/08/14 01:35:09;;;;;;;5.20;4.90;;;32.60;34.60;;;;;;5054136;28;20509;-81
2022/08/14 01:37:59;;;;;;;4.50;4.10;;;32.60;34.70;;;;;;5054971;28;20520;-81
2022/08/14 01:40:28;;;;;;;5.03;4.73;;;32.60;34.70;;;;;;5055098;28;20451;-81
2022/08/14 01:43:16;;;;;;;5.20;4.90;;;32.60;34.70;;;;;;5055025;28;20506;-81
2022/08/14 01:45:50;;;;;;;4.80;4.60;;;32.60;34.70;;;;;;5054967;28;20456;-81
2022/08/14 01:48:34;;;;;;;4.50;4.30;;;32.50;34.80;;;;;;5054490;28;20498;-81
2022/08/14 01:51:05;;;;;;;4.50;4.30;;;32.50;34.70;;;;;;5055094;28;20522;-81
2022/08/14 01:53:49;;;;;;;4.50;4.27;;;32.50;34.70;;;;;;5054441;28;20491;-81
2022/08/14 01:56:32;;;;;;;4.73;4.43;;;32.50;34.80;;;;;;5054407;28;20455;-80
2022/08/14 01:59:06;;;;;;;4.53;4.23;;;32.40;34.70;;;;;;5054397;28;20451;-81
2022/08/14 02:01:37;;;;;;;4.90;4.60;;;32.40;34.80;;;;;;5054020;28;20474;-81
2022/08/14 02:04:08;;;;;;;4.70;4.50;;;32.30;34.80;;;;;;5054816;28;20554;-81
2022/08/14 02:06:57;;;;;;;5.13;4.73;;;32.40;34.80;;;;;;5054239;28;20442;-81
2022/08/14 02:09:26;;;;;;;4.30;4.10;;;32.40;34.80;;;;;;5054585;28;20428;-81
2022/08/14 02:11:58;;;;;;;4.50;4.10;;;32.30;34.80;;;;;;5054737;28;20406;-81
2022/08/14 02:14:30;;;;;;;4.97;4.67;;;32.30;34.80;;;;;;5054445;28;20524;-82
2022/08/14 02:16:59;;;;;;;4.57;4.37;;;32.20;34.80;;;;;;5054306;28;20449;-81
2022/08/14 02:19:28;;;;;;;4.73;4.47;;;32.30;34.80;;;;;;5050847;28;20432;-81
2022/08/14 02:22:01;;;;;;;5.40;5.00;;;32.20;34.90;;;;;;5050398;28;20980;-80
2022/08/14 02:24:31;;;;;;;5.40;4.93;;;32.20;34.90;;;;;;5053868;28;20466;-81
2022/08/14 02:27:08;;;;;;;5.10;4.70;;;32.20;34.90;;;;;;5054008;28;20449;-80
2022/08/14 02:29:56;;;;;;;5.23;4.93;;;32.10;34.80;;;;;;5054076;28;20501;-81
2022/08/14 02:32:28;;;;;;;4.70;4.40;;;32.10;35.00;;;;;;5054173;28;20428;-81
2022/08/14 02:35:14;;;;;;;5.30;5.00;;;32.10;35.00;;;;;;5053655;28;20477;-81
2022/08/14 02:37:42;;;;;;;4.80;4.47;;;32.10;35.00;;;;;;5054181;28;20429;-81
2022/08/14 02:40:17;;;;;;;5.90;5.40;;;32.00;35.10;;;;;;5053188;28;20454;-80
2022/08/14 02:42:45;;;;;;;5.20;4.80;;;32.00;35.00;;;;;;5052814;28;20441;-81
2022/08/14 02:45:24;;;;;;;5.00;4.50;;;32.00;35.10;;;;;;5053519;28;20478;-81
2022/08/14 02:48:06;;;;;;;4.80;4.50;;;32.00;35.10;;;;;;5053376;28;20442;-80
2022/08/14 02:50:54;;;;;;;4.80;4.50;;;31.90;35.10;;;;;;5055797;28;20430;-79
2022/08/14 02:53:22;;;;;;;4.43;4.13;;;31.90;35.10;;;;;;5060247;27;20420;-80
2022/08/14 02:55:52;;;;;;;5.13;4.83;;;31.90;35.10;;;;;;5053851;28;20452;-80
2022/08/14 02:58:22;;;;;;;4.23;4.00;;;31.90;35.30;;;;;;5052253;28;20453;-80
2022/08/14 03:00:58;;;;;;;4.60;4.40;;;31.80;35.20;;;;;;5052633;28;20453;-80
2022/08/14 03:03:28;;;;;;;5.17;4.87;;;31.80;35.30;;;;;;5051907;28;20474;-80
2022/08/14 03:06:03;;;;;;;4.33;4.13;;;31.80;35.20;;;;;;5052811;28;20470;-80
2022/08/14 03:08:32;;;;;;;4.50;4.30;;;31.80;35.20;;;;;;5052623;28;20441;-80
2022/08/14 03:11:06;;;;;;;4.97;4.50;;;31.70;35.30;;;;;;5052803;28;20487;-79
2022/08/14 03:13:40;;;;;;;4.50;4.30;;;31.70;35.30;;;;;;5052289;28;20555;-79
2022/08/14 03:16:13;;;;;;;5.13;4.83;;;31.70;35.40;;;;;;5052678;28;20446;-79
2022/08/14 03:18:57;;;;;;;5.23;4.07;;;31.70;35.40;;;;;;5052329;28;20417;-79
2022/08/14 03:21:29;;;;;;;4.97;4.67;;;31.60;35.40;;;;;;5052316;28;20417;-80
2022/08/14 03:24:08;;;;;;;4.40;4.20;;;31.60;35.40;;;;;;5052476;28;20451;-80
2022/08/14 03:26:55;;;;;;;4.67;4.20;;;31.60;35.50;;;;;;5052048;28;20971;-81
2022/08/14 03:29:27;;;;;;;5.23;4.87;;;31.60;35.50;;;;;;5052783;28;20448;-81
2022/08/14 03:31:58;;;;;;;5.00;4.70;;;31.50;35.50;;;;;;5052633;28;20443;-81
2022/08/14 03:34:27;;;;;;;4.87;4.57;;;31.50;35.50;;;;;;5052180;28;20485;-81
2022/08/14 03:37:14;;;;;;;4.93;4.63;;;31.50;35.50;;;;;;5052657;28;20433;-81
2022/08/14 03:40:03;;;;;;;4.80;4.60;;;31.40;35.50;;;;;;5052222;28;20624;-81
2022/08/14 03:42:34;;;;;;;4.40;4.20;;;31.40;35.50;;;;;;5052583;28;20542;-81
2022/08/14 03:45:05;;;;;;;8.07;4.20;;;31.40;35.60;;;;;;5051981;28;21010;-80
2022/08/14 03:47:53;;;;;;;4.60;4.40;;;31.40;35.50;;;;;;5051987;28;20526;-80
2022/08/14 03:50:25;;;;;;;4.80;4.57;;;31.30;35.60;;;;;;5051606;28;20526;-81
2022/08/14 03:52:59;;;;;;;4.33;4.13;;;31.30;35.60;;;;;;5051785;28;20477;-81
2022/08/14 03:55:28;;;;;;;4.50;4.30;;;31.30;35.60;;;;;;5051734;28;20437;-81
2022/08/14 03:57:58;;;;;;;4.87;4.57;;;31.30;35.60;;;;;;5051213;28;20423;-80
2022/08/14 04:00:28;;;;;;;5.30;5.00;;;31.30;35.60;;;;;;5051402;28;20474;-81
2022/08/14 04:03:11;;;;;;;4.43;4.23;;;31.20;35.60;;;;;;5051047;28;20527;-81
2022/08/14 04:05:46;;;;;;;4.80;4.47;;;31.20;35.60;;;;;;5050945;28;20417;-81
2022/08/14 04:08:16;;;;;;;4.33;4.13;;;31.20;35.60;;;;;;5051189;28;20509;-81
2022/08/14 04:10:58;;;;;;;4.60;4.40;;;31.20;35.70;;;;;;5051179;28;20459;-81
2022/08/14 04:13:29;;;;;;;4.57;4.27;;;31.10;35.60;;;;;;5051149;28;20442;-81
2022/08/14 04:16:01;;;;;;;4.33;4.13;;;31.10;35.70;;;;;;5050854;28;20429;-80
2022/08/14 04:18:32;;;;;;;6.60;4.57;;;31.10;35.70;;;;;;5051049;28;20451;-80
2022/08/14 04:21:01;;;;;;;4.63;4.40;;;31.00;35.70;;;;;;5051052;27;20425;-80
2022/08/14 04:23:31;;;;;;;4.80;4.50;;;31.00;35.70;;;;;;5050700;28;20471;-81
2022/08/14 04:26:01;;;;;;;4.40;4.20;;;31.00;35.80;;;;;;5050753;28;20538;-80
2022/08/14 04:28:31;;;;;;;4.77;4.50;;;31.00;35.70;;;;;;5050617;28;20425;-80
2022/08/14 04:31:19;;;;;;;4.03;3.87;;;31.00;35.80;;;;;;5050162;28;20484;-80
2022/08/14 04:34:07;;;;;;;5.20;4.90;;;31.00;35.80;;;;;;5052607;28;20465;-81
2022/08/14 04:45:20;;;;;;;5.10;4.70;;;30.90;35.80;;;;;;5052420;28;20449;-80
2022/08/14 04:50:37;;;;;;;5.30;4.90;;;30.90;35.90;;;;;;5054464;28;20418;-80
2022/08/14 04:53:15;;;;;;;6.70;4.40;;;30.80;35.80;;;;;;5051795;27;20421;-80
2022/08/14 04:55:50;;;;;;;4.53;4.30;;;30.80;35.90;;;;;;5050690;28;20491;-80
2022/08/14 04:58:19;;;;;;;5.27;4.80;;;30.80;36.00;;;;;;5050617;28;20441;-80
2022/08/14 05:01:00;;;;;;;4.60;4.40;;;30.80;35.90;;;;;;5050898;28;20446;-80
2022/08/14 05:03:30;;;;;;;4.10;3.90;;;30.80;35.90;;;;;;5050611;28;20516;-80
2022/08/14 05:05:59;;;;;;;4.83;4.43;;;30.80;35.90;;;;;;5050158;28;20425;-79
2022/08/14 05:08:27;;;;;;;4.47;4.27;;;30.80;35.90;;;;;;5056606;28;20409;-81
2022/08/14 05:11:18;;;;;;;4.90;4.60;;;30.80;35.90;;;;;;5056665;28;20986;-80
2022/08/14 05:13:48;;;;;;;4.43;4.13;;;30.70;35.90;;;;;;5056904;28;20467;-79
2022/08/14 05:16:37;;;;;;;4.70;4.50;;;30.70;35.90;;;;;;5055323;28;20445;-80
2022/08/14 05:19:07;;;;;;;4.47;4.27;;;30.70;35.90;;;;;;5055704;28;20418;-81
2022/08/14 05:21:55;;;;;;;5.53;4.33;;;30.70;35.90;;;;;;5051790;27;20438;-79
2022/08/14 05:24:43;;;;;;;4.63;4.33;;;30.70;36.00;;;;;;5050765;28;20478;-80
2022/08/14 05:27:11;;;;;;;4.30;4.10;;;30.70;36.00;;;;;;5051188;28;20506;-80
2022/08/14 05:29:43;;;;;;;4.60;4.27;;;30.70;36.00;;;;;;5050476;28;20477;-80
2022/08/14 05:32:14;;;;;;;4.43;4.20;;;30.60;36.00;;;;;;5049558;28;20472;-80
2022/08/14 05:34:44;;;;;;;4.10;3.90;;;30.60;36.00;;;;;;5050277;28;20467;-79
2022/08/14 05:37:13;;;;;;;4.60;4.40;;;30.60;36.00;;;;;;5050985;28;20446;-80
2022/08/14 05:39:42;;;;;;;4.37;4.07;;;30.50;36.10;;;;;;5068489;28;20507;-80
2022/08/14 05:42:10;;;;;;;6.17;4.10;;;30.50;36.00;;;;;;5059327;28;20470;-80
2022/08/14 05:44:54;;;;;;;4.90;4.60;;;30.50;36.20;;;;;;5055881;28;20484;-80
2022/08/14 05:47:26;;;;;;;4.90;4.50;;;30.50;36.10;;;;;;5058003;28;20447;-80
2022/08/14 05:50:01;;;;;;;4.57;4.27;;;30.50;36.10;;;;;;5055102;28;20451;-81
2022/08/14 05:52:30;;;;;;;4.70;4.40;;;30.50;36.10;;;;;;5051165;28;20422;-80
2022/08/14 05:55:16;;;;;;;4.27;4.00;;;30.40;36.10;;;;;;5053975;27;20460;-80
2022/08/14 05:57:51;;;;;;;4.67;4.47;;;30.40;36.10;;;;;;5056082;27;20420;-81
2022/08/14 06:00:20;;;;;;;4.40;4.20;;;30.40;36.00;;;;;;5070094;27;20939;-81
2022/08/14 06:02:58;;;;;;;4.47;4.17;;;30.40;36.20;;;;;;5059980;28;20412;-80
2022/08/14 06:05:27;;;;;;;4.27;4.07;;;30.40;36.20;;;;;;5064460;27;20525;-80
2022/08/14 06:07:56;;;;;;;4.30;4.10;;;30.40;36.20;;;;;;5056295;28;20451;-81
2022/08/14 06:10:24;;;;;;;3.60;3.50;;;30.30;36.30;;;;;;5043161;27;20390;-81
2022/08/14 06:12:55;;;;;;;4.20;4.00;;;30.30;36.80;;;;;;5041116;28;20501;-80
2022/08/14 06:15:25;;;;;;;4.30;4.03;;;30.30;36.20;;;;;;5040064;27;20476;-81
2022/08/14 06:18:03;;;;;;;4.50;4.20;;;30.30;36.30;;;;;;5039800;27;20447;-80
2022/08/14 06:20:34;;;;;;;4.10;3.90;;;30.30;36.20;;;;;;5038400;27;20414;-81
2022/08/14 06:23:02;;;;;;;4.40;4.10;;;30.30;36.20;;;;;;5038153;27;20487;-80
2022/08/14 06:25:31;;;;;;;3.97;3.77;;;30.30;36.10;;;;;;5039057;27;20437;-81
2022/08/14 06:28:00;;;;;;;4.67;4.27;;;30.30;36.10;;;;;;5037943;27;20451;-81
2022/08/14 06:30:35;;;;;;;4.33;4.13;;;30.40;36.10;;;;;;5038492;27;20437;-81
2022/08/14 06:33:18;;;;;;;4.50;4.23;;;30.40;36.20;;;;;;5037968;27;20460;-81
2022/08/14 06:35:52;;;;;;;4.53;4.33;;;30.50;36.10;;;;;;5037634;27;20919;-80
2022/08/14 06:38:22;;;;;;;4.47;4.10;;;30.60;35.90;;;;;;5035317;27;20453;-81
2022/08/14 06:40:51;;;;;;;4.23;4.03;;;30.80;35.80;;;;;;5033236;27;20494;-81
2022/08/14 06:43:22;;;;;;;4.60;4.30;;;30.90;35.60;;;;;;5031864;27;20426;-80
2022/08/14 06:46:04;;;;;;;4.17;3.97;;;31.00;35.50;;;;;;5032266;27;20428;-81
2022/08/14 06:48:58;;;;;;;4.30;4.10;;;31.20;35.30;;;;;;5031631;27;20414;-80
2022/08/14 06:51:45;;;;;;;4.23;4.03;;;31.30;35.20;;;;;;5032130;28;20429;-80
2022/08/14 06:54:20;;;;;;;4.50;4.30;;;31.40;35.20;;;;;;5031956;27;20487;-80
2022/08/14 06:56:58;;;;;;;4.67;4.37;;;31.50;35.10;;;;;;5031878;27;20451;-80
2022/08/14 06:59:29;;;;;;;4.03;3.83;;;31.60;35.10;;;;;;5032280;27;20454;-80
2022/08/14 07:07:37;;;;;;;4.40;4.20;;;32.10;34.20;;;;;;5034549;27;20499;-81
2022/08/14 07:10:06;;;;;;;4.33;4.13;;;32.10;33.90;;;;;;5036792;27;20480;-80
2022/08/14 07:12:44;;;;;;;3.97;3.80;;;32.20;33.70;;;;;;5036393;27;20478;-81
2022/08/14 07:15:31;;;;;;;4.10;3.90;;;32.20;33.80;;;;;;5034763;28;20442;-82
2022/08/14 07:18:06;;;;;;;4.30;4.10;;;32.30;34.00;;;;;;5033373;27;20500;-82
2022/08/14 07:20:39;;;;;;;3.87;3.67;;;32.40;33.70;;;;;;5033581;27;20451;-81
2022/08/14 07:23:17;;;;;;;4.37;4.17;;;32.50;33.60;;;;;;5035915;27;20447;-81
2022/08/14 07:25:48;;;;;;;3.77;3.67;;;32.60;33.60;;;;;;5032498;27;20474;-80
2022/08/14 07:28:22;;;;;;;4.00;3.90;;;32.80;33.40;;;;;;5032229;27;20478;-81
2022/08/14 07:30:55;;;;;;;5.30;4.23;;;32.90;33.60;;;;;;5057194;27;20418;-80
2022/08/14 07:33:34;;;;;;;4.10;4.00;;;33.00;33.50;;;;;;5071638;28;20557;-80
2022/08/14 07:36:15;;;;;;;4.60;4.30;;;33.20;33.40;;;;;;5087476;27;20480;-80
2022/08/14 07:38:57;;;;;;;3.83;3.70;;;33.30;33.50;;;;;;5085235;27;20461;-80
2022/08/14 07:41:43;;;;;;;3.80;3.70;;;33.50;33.40;;;;;;5089169;27;20428;-80
2022/08/14 07:44:12;;;;;;;4.17;4.00;;;33.70;33.30;;;;;;5093058;27;20482;-80
2022/08/14 07:47:00;;;;;;;4.83;4.47;;;33.80;33.20;;;;;;5093965;27;20438;-81
2022/08/14 07:49:35;;;;;;;4.00;3.80;;;33.90;33.10;;;;;;5090515;27;20453;-80
2022/08/14 07:52:15;;;;;;;4.10;3.90;;;34.00;33.20;;;;;;5092353;27;20856;-81
2022/08/14 07:55:03;;;;;;;4.30;4.00;;;34.20;33.10;;;;;;5084910;27;20518;-80
2022/08/14 07:57:38;;;;;;;4.73;4.27;;;34.30;33.00;;;;;;5076613;27;20449;-81
2022/08/14 08:00:14;;;;;;;4.40;4.20;;;34.40;33.00;;;;;;5075871;27;20445;-81
2022/08/14 08:03:09;;;;;;;3.87;3.70;;;34.50;33.00;;;;;;5076879;27;20537;-81
2022/08/14 08:05:45;;;;;;;3.80;3.60;;;34.60;32.80;;;;;;5075219;27;20444;-81
2022/08/14 08:08:14;;;;;;;4.23;4.07;;;34.70;33.00;;;;;;5076051;27;20942;-83
2022/08/14 08:10:54;;;;;;;3.90;3.70;;;34.90;33.00;;;;;;5075888;27;20450;-82
2022/08/14 08:13:30;;;;;;;4.73;4.33;;;35.00;32.90;;;;;;5076202;27;20459;-81
2022/08/14 08:16:02;;;;;;;4.53;4.33;;;35.20;32.80;;;;;;5077228;27;20433;-81
2022/08/14 08:18:30;;;;;;;4.20;4.00;;;35.40;32.60;;;;;;5077266;27;20477;-79
2022/08/14 08:21:02;;;;;;;4.30;3.97;;;35.50;32.50;;;;;;5077780;27;20476;-80
2022/08/14 08:23:33;;;;;;;4.10;3.90;;;35.70;32.50;;;;;;5078168;27;20454;-80
2022/08/14 08:26:10;;;;;;;3.83;3.70;;;35.90;32.40;;;;;;5076953;27;20608;-81
2022/08/14 08:28:39;;;;;;;3.63;3.53;;;36.10;32.20;;;;;;5077568;27;20517;-81
2022/08/14 08:31:11;;;;;;;3.93;3.83;;;36.20;32.20;;;;;;5075768;27;20488;-81
2022/08/14 08:33:41;;;;;;;3.93;3.80;;;36.30;32.20;;;;;;5075243;27;20477;-80
2022/08/14 08:36:11;;;;;;;6.73;4.10;;;36.50;32.20;;;;;;5074912;27;20448;-81
2022/08/14 08:38:48;;;;;;;3.63;3.53;;;36.60;32.10;;;;;;5075080;27;20498;-81
2022/08/14 08:41:40;;;;;;;3.77;3.60;;;36.70;32.10;;;;;;5075950;27;20433;-81
2022/08/14 08:44:10;;;;;;;3.93;3.77;;;36.80;32.10;;;;;;5075665;27;20979;-81
2022/08/14 08:47:00;;;;;;;4.00;3.90;;;36.90;32.20;;;;;;5075547;27;20955;-80
2022/08/14 08:49:37;;;;;;;3.80;3.70;;;37.10;32.20;;;;;;5076220;27;20510;-80
2022/08/14 08:52:20;;;;;;;3.53;3.43;;;37.20;32.10;;;;;;5076370;27;20553;-81
2022/08/14 08:54:57;;;;;;;4.00;3.80;;;37.30;32.00;;;;;;5075780;27;20480;-81
2022/08/14 08:57:25;;;;;;;3.70;3.60;;;37.30;32.20;;;;;;5075132;27;20502;-81
2022/08/14 08:59:53;;;;;;;3.83;3.73;;;37.50;32.10;;;;;;5066881;27;20446;-82
2022/08/14 09:02:26;;;;;;;4.13;3.90;;;37.80;31.80;;;;;;5057394;27;20443;-81
2022/08/14 09:05:01;;;;;;;3.37;3.27;;;37.90;31.90;;;;;;5054327;28;20475;-80
2022/08/14 09:07:29;;;;;;;3.90;3.80;;;37.90;32.00;;;;;;5055355;28;20461;-81
2022/08/14 09:09:59;;;;;;;3.20;3.10;;;38.00;32.00;;;;;;5055174;28;20542;-81
2022/08/14 09:12:28;;;;;;;3.53;3.43;;;38.20;32.00;;;;;;5054909;28;20451;-80
2022/08/14 09:15:00;;;;;;;3.77;3.50;;;38.30;31.80;;;;;;5057810;28;20470;-80
2022/08/14 09:17:28;;;;;;;3.37;3.27;;;38.50;31.60;;;;;;5057056;28;20442;-81
2022/08/14 09:19:57;;;;;;;3.90;3.73;;;38.70;31.70;;;;;;5057096;28;20446;-80
2022/08/14 09:22:31;;;;;;;3.53;3.43;;;38.80;31.60;;;;;;5056760;28;20449;-80
2022/08/14 09:25:10;;;;;;;3.20;3.10;;;38.90;31.60;;;;;;5057989;28;20470;-80
2022/08/14 09:27:41;;;;;;;3.53;3.43;;;39.10;31.50;;;;;;5057924;28;20427;-80
2022/08/14 09:30:10;;;;;;;3.50;3.40;;;39.30;31.40;;;;;;5059775;28;20451;-81
2022/08/14 09:33:11;;;;;;;3.40;3.30;;;39.50;31.30;;;;;;5056518;28;20470;-81
2022/08/14 09:35:47;;;;;;;4.20;3.80;;;39.50;31.20;;;;;;5054796;28;20442;-81
2022/08/14 09:38:27;;;;;;;3.63;3.53;;;39.70;31.10;;;;;;5055511;28;20510;-80
2022/08/14 09:41:01;;;;;;;3.27;3.27;;;39.90;31.00;;;;;;5055095;28;20454;-80
2022/08/14 09:43:31;;;;;;;3.50;3.40;;;40.00;31.00;;;;;;5060810;28;20462;-79
2022/08/14 09:45:59;;;;;;;3.47;3.37;;;40.10;30.90;;;;;;5061704;28;20466;-80
2022/08/14 09:48:29;;;;;;;3.17;3.13;;;40.20;30.80;;;;;;5056975;28;20446;-81
2022/08/14 09:50:58;;;;;;;3.47;3.27;;;40.40;30.80;;;;;;5054333;28;20551;-81
2022/08/14 09:53:41;;;;;;;3.37;3.27;;;40.60;30.70;;;;;;5055362;28;20434;-82
2022/08/14 09:56:30;;;;;;;3.40;3.30;;;40.70;30.60;;;;;;5055899;28;20521;-81
2022/08/14 09:59:13;;;;;;;3.10;3.00;;;41.00;30.40;;;;;;5054890;28;20458;-81
2022/08/14 10:01:43;;;;;;;3.77;3.63;;;41.10;30.30;;;;;;5053833;28;20465;-81
2022/08/14 10:04:22;;;;;;;3.20;3.10;;;41.30;30.10;;;;;;5054560;28;20474;-81
2022/08/14 10:07:02;;;;;;;3.30;3.20;;;41.50;30.00;;;;;;5055497;28;20481;-81
2022/08/14 10:09:33;;;;;;;3.20;3.10;;;41.70;30.00;;;;;;5055832;28;20438;-81
2022/08/14 10:12:10;;;;;;;3.00;2.90;;;41.90;29.90;;;;;;5054973;28;20456;-80
2022/08/14 10:14:46;;;;;;;3.00;2.90;;;42.10;29.60;;;;;;5056382;28;20477;-81
2022/08/14 10:17:23;;;;;;;3.13;3.10;;;42.30;29.50;;;;;;5054555;28;20453;-81
2022/08/14 10:19:54;;;;;;;3.20;3.20;;;42.50;29.40;;;;;;5054281;28;20442;-81
2022/08/14 10:22:29;;;;;;;3.00;2.90;;;42.70;29.30;;;;;;5055450;28;20452;-82
2022/08/14 10:25:18;;;;;;;3.10;3.10;;;42.90;29.20;;;;;;5054997;28;20465;-81
2022/08/14 10:27:58;;;;;;;3.47;3.37;;;43.00;28.90;;;;;;5054101;28;20960;-80
2022/08/14 10:30:33;;;;;;;2.70;2.70;;;43.10;28.70;;;;;;5054159;28;20442;-80
2022/08/14 10:33:02;;;;;;;3.27;3.17;;;43.30;28.80;;;;;;5053738;28;20446;-82
2022/08/14 10:35:41;;;;;;;3.30;3.20;;;43.40;28.80;;;;;;5054016;28;20461;-81
2022/08/14 10:38:15;;;;;;;2.63;2.63;;;43.60;28.70;;;;;;5055647;28;20936;-81
2022/08/14 10:40:44;;;;;;;2.87;2.80;;;43.60;28.60;;;;;;5053517;28;20469;-80
2022/08/14 10:43:27;;;;;;;3.17;3.07;;;43.80;28.60;;;;;;5054613;28;20476;-81
2022/08/14 10:46:00;;;;;;;3.33;3.00;;;44.00;28.40;;;;;;5057936;28;20465;-80
2022/08/14 10:48:56;;;;;;;2.90;2.90;;;44.10;28.20;;;;;;5057429;28;20472;-81
2022/08/14 10:51:25;;;;;;;2.80;2.70;;;44.40;28.10;;;;;;5058038;28;20434;-80
2022/08/14 11:06:30;;;;;;;3.10;2.90;;;44.70;27.50;;;;;;5115270;27;20536;-83
2022/08/14 11:09:40;;;;;;;2.93;2.87;;;44.90;27.90;;;;;;5116700;28;20435;-81
2022/08/14 11:12:15;;;;;;;3.03;2.93;;;45.00;27.70;;;;;;5110222;28;20499;-83
2022/08/14 11:15:03;;;;;;;2.70;2.67;;;45.30;27.60;;;;;;5115872;28;20467;-83
2022/08/14 11:17:31;;;;;;;2.70;2.70;;;45.50;27.40;;;;;;5115832;28;20474;-83
2022/08/14 11:20:01;;;;;;;2.50;2.50;;;45.50;27.20;;;;;;5115528;28;20961;-82
2022/08/14 11:22:31;;;;;;;2.63;2.53;;;45.80;27.10;;;;;;5116833;28;20454;-82
2022/08/14 11:25:22;;;;;;;2.27;2.17;;;46.50;26.80;;;;;;5115829;28;20447;-84
2022/08/14 11:27:51;;;;;;;2.43;2.43;;;47.70;25.90;;;;;;5115386;28;20450;-82
2022/08/14 11:30:20;;;;;;;2.20;2.20;;;47.50;25.70;;;;;;5115358;28;20449;-82
2022/08/14 11:33:08;;;;;;;2.20;2.20;;;48.00;25.40;;;;;;5116604;28;20439;-83
2022/08/14 11:35:37;;;;;;;2.47;2.40;;;47.30;25.60;;;;;;5115376;28;20915;-83
2022/08/14 11:38:18;;;;;;;2.77;2.77;;;46.90;25.90;;;;;;5115754;28;20463;-83
2022/08/14 11:40:47;;;;;;;2.43;2.43;;;46.50;26.00;;;;;;5115893;28;20447;-82
2022/08/14 11:43:15;;;;;;;2.90;2.80;;;46.30;26.20;;;;;;5114689;28;20444;-83
2022/08/14 11:45:47;;;;;;;2.80;2.70;;;45.90;26.30;;;;;;5115097;28;20436;-82
2022/08/14 11:48:16;;;;;;;2.50;2.50;;;45.60;26.50;;;;;;5115152;28;20439;-82
2022/08/14 11:51:11;;;;;;;2.37;2.37;;;46.30;27.00;;;;;;5115057;28;20470;-82
2022/08/14 11:53:42;;;;;;;2.40;2.20;;;48.60;25.00;;;;;;5116064;28;20459;-82
2022/08/14 11:56:12;;;;;;;1.98;1.98;;;50.30;23.60;;;;;;5116683;28;20227;-82
2022/08/14 11:58:40;;;;;;;2.00;2.00;;;51.60;22.80;;;;;;5116935;28;20195;-82
2022/08/14 12:01:09;;;;;;;1.50;1.50;;;52.00;22.60;;;;;;5118701;28;20195;-83
2022/08/14 12:03:38;;;;;;;1.40;1.40;;;53.00;21.90;;;;;;5117964;28;20254;-83
2022/08/14 12:06:20;;;;;;;1.50;1.50;;;53.90;21.40;;;;;;5130162;28;20219;-83
2022/08/14 12:09:06;;;;;;;1.42;1.42;;;54.60;21.00;;;;;;5124398;28;20259;-82
2022/08/14 12:11:41;;;;;;;1.30;1.30;;;54.90;20.80;;;;;;5124101;28;20286;-82
2022/08/14 12:14:14;;;;;;;1.70;1.70;;;55.40;20.40;;;;;;5125860;28;20226;-83
2022/08/14 12:17:02;;;;;;;1.23;1.23;;;55.90;20.10;;;;;;5124306;28;20195;-83
2022/08/14 12:19:31;;;;;;;1.05;1.05;;;56.30;19.80;;;;;;5123768;28;20198;-83
2022/08/14 12:22:02;;;;;;;1.10;1.10;;;56.50;19.70;;;;;;5124427;28;20202;-83
2022/08/14 12:24:35;;;;;;;1.10;1.10;;;56.60;19.60;;;;;;5123598;28;20215;-83
2022/08/14 12:27:07;;;;;;;1.23;1.23;;;56.50;19.70;;;;;;5124376;28;20215;-83
2022/08/14 12:29:36;;;;;;;1.00;1.00;;;56.90;19.50;;;;;;5122524;28;20207;-83
2022/08/14 12:32:07;;;;;;;1.00;1.00;;;57.20;19.10;;;;;;5122123;28;20199;-82
2022/08/14 12:34:36;;;;;;;1.27;1.20;;;57.40;19.10;;;;;;5122326;28;20223;-82
2022/08/14 12:37:05;;;;;;;0.90;0.90;;;57.70;18.90;;;;;;5119863;28;20230;-83
2022/08/14 12:39:35;;;;;;;0.90;0.90;;;57.70;18.50;;;;;;5122530;28;20214;-83
2022/08/14 12:42:08;;;;;;;1.10;1.10;;;57.10;18.80;;;;;;5121744;28;20203;-82
2022/08/14 12:44:41;;;;;;;1.15;1.15;;;56.50;19.20;;;;;;5122913;28;20223;-82
2022/08/14 12:47:11;;;;;;;1.40;1.40;;;55.90;19.60;;;;;;5122549;28;20233;-83
2022/08/14 12:49:52;;;;;;;1.33;1.30;;;54.50;20.30;;;;;;5123105;28;20237;-83
2022/08/14 12:52:27;;;;;;;1.42;1.42;;;54.00;20.90;;;;;;5122273;28;20195;-83
2022/08/14 12:55:10;;;;;;;1.98;1.60;;;53.90;21.10;;;;;;5122866;28;20241;-82
2022/08/14 12:57:41;;;;;;;1.52;1.27;;;54.70;20.50;;;;;;5123589;28;20642;-83
2022/08/14 13:00:12;;;;;;;1.85;1.27;;;54.90;19.90;;;;;;5123098;28;20199;-83
2022/08/14 13:02:51;;;;;;;1.00;1.00;;;55.40;20.00;;;;;;5124588;28;20214;-82
2022/08/14 13:05:23;;;;;;;1.55;1.30;;;55.50;20.00;;;;;;5123588;28;20227;-83
2022/08/14 13:07:56;;;;;;;1.35;1.35;;;55.90;19.80;;;;;;5123996;28;20237;-81
2022/08/14 13:10:28;;;;;;;1.33;1.23;;;55.50;19.50;;;;;;5123837;28;20199;-82
2022/08/14 13:13:16;;;;;;;1.30;1.30;;;55.50;19.80;;;;;;5124056;28;20210;-83
2022/08/14 13:15:46;;;;;;;1.10;1.10;;;56.10;19.70;;;;;;5123704;28;20294;-82
2022/08/14 13:18:14;;;;;;;1.15;1.15;;;56.40;19.50;;;;;;5121408;28;20206;-81
2022/08/14 13:20:44;;;;;;;1.23;1.23;;;56.60;19.30;;;;;;5122560;28;20207;-82
2022/08/14 13:23:18;;;;;;;1.20;1.20;;;55.80;19.70;;;;;;5122868;28;20199;-82
2022/08/14 13:26:00;;;;;;;1.45;1.45;;;54.80;20.10;;;;;;5120913;28;20257;-83
2022/08/14 13:28:29;;;;;;;1.35;1.35;;;53.80;20.50;;;;;;5119214;28;20198;-82
2022/08/14 13:31:03;;;;;;;1.75;1.75;;;52.90;21.30;;;;;;5118417;28;20202;-81
2022/08/14 13:33:37;;;;;;;1.70;1.70;;;52.40;21.60;;;;;;5117984;28;20604;-81
2022/08/14 13:36:08;;;;;;;1.70;1.60;;;51.80;22.00;;;;;;5117675;28;20244;-81
2022/08/14 13:38:36;;;;;;;1.90;1.90;;;51.50;22.20;;;;;;5116152;28;20195;-81
2022/08/14 13:41:07;;;;;;;2.03;1.92;;;51.50;22.20;;;;;;5115941;28;20285;-81
2022/08/14 13:43:38;;;;;;;1.90;1.80;;;51.40;22.10;;;;;;5115457;28;20242;-82
2022/08/14 13:46:27;;;;;;;2.10;2.10;;;50.90;22.40;;;;;;5115258;28;20283;-82
2022/08/14 13:48:56;;;;;;;2.00;2.00;;;50.60;22.50;;;;;;5115376;28;20203;-82
2022/08/14 13:51:27;;;;;;;2.15;2.15;;;49.90;22.80;;;;;;5117468;28;20199;-83
2022/08/14 13:53:56;;;;;;;2.25;2.15;;;49.40;23.10;;;;;;5117705;28;20230;-83
2022/08/14 13:56:40;;;;;;;2.17;2.08;;;49.40;23.30;;;;;;5117666;28;20275;-82
2022/08/14 13:59:09;;;;;;;2.22;2.13;;;49.40;23.50;;;;;;5116433;28;20209;-82
2022/08/14 14:01:38;;;;;;;2.10;2.10;;;49.70;23.40;;;;;;5117156;28;20662;-82